Time;durP1;ratioP1;P1;durP2;ratioP2;P2;SDS_P1;SDS_P2;PMS_P1;PMS_P2;Temp;Humidity;BMP_temperature;BMP_pressure;BME280_temperature;BME280_humidity;BME280_pressure;Samples;Min_cycle;Max_cycle;Signal;HPM_P1;HPM_P2
2021/06/11 00:00:23;;;;;;;20.92;10.77;;;;;;;14.80;81.03;98996.16;5058081;28;20043;-68
2021/06/11 00:02:49;;;;;;;14.98;10.85;;;;;;;14.81;80.96;99000.47;5057822;28;20112;-69
2021/06/11 00:05:15;;;;;;;15.63;11.55;;;;;;;14.79;80.82;98997.19;5091716;28;20499;-68
2021/06/11 00:07:41;;;;;;;22.70;11.52;;;;;;;14.80;80.82;98999.66;5074896;28;20177;-68
2021/06/11 00:10:11;;;;;;;15.25;10.82;;;;;;;14.78;80.73;98995.53;5091026;28;20127;-68
2021/06/11 00:12:38;;;;;;;18.80;11.15;;;;;;;14.68;80.78;98976.38;5091083;28;20048;-69
2021/06/11 00:15:05;;;;;;;19.55;11.25;;;;;;;14.80;80.57;98999.66;5092190;28;20044;-68
2021/06/11 00:17:31;;;;;;;17.45;10.40;;;;;;;14.80;80.79;98993.47;5074206;28;20044;-69
2021/06/11 00:19:57;;;;;;;16.65;10.68;;;;;;;14.82;80.82;99000.28;5091105;28;20131;-69
2021/06/11 00:22:22;;;;;;;19.10;10.30;;;;;;;14.84;80.80;98994.72;5057203;28;20474;-68
2021/06/11 00:24:48;;;;;;;15.55;10.05;;;;;;;14.83;80.59;98990.41;5073558;28;20052;-69
2021/06/11 00:27:14;;;;;;;15.32;10.25;;;;;;;14.71;80.47;98954.59;5091099;28;20130;-69
2021/06/11 00:29:40;;;;;;;16.98;10.32;;;;;;;14.83;80.54;98977.88;5057263;28;20044;-68
2021/06/11 00:32:06;;;;;;;11.80;9.77;;;;;;;14.82;80.54;98976.22;5073384;28;20338;-69
2021/06/11 00:34:32;;;;;;;17.55;10.10;;;;;;;14.81;80.57;98979.91;5071993;28;20048;-68
2021/06/11 00:36:58;;;;;;;14.80;9.45;;;;;;;14.78;80.46;98974.13;5088291;28;20044;-68
2021/06/11 00:39:24;;;;;;;14.15;10.25;;;;;;;14.74;80.78;98983.59;5088268;28;20040;-69
2021/06/11 00:41:50;;;;;;;16.30;9.35;;;;;;;14.71;80.88;98984.00;5088254;28;20132;-68
2021/06/11 00:44:17;;;;;;;13.20;9.43;;;;;;;14.72;80.81;98988.31;5050070;28;20126;-67
2021/06/11 00:46:43;;;;;;;19.85;10.57;;;;;;;14.73;80.64;98987.31;5085271;28;20048;-68
2021/06/11 00:49:08;;;;;;;15.73;10.32;;;;;;;14.72;80.59;98982.97;5073042;28;20040;-68
2021/06/11 00:51:34;;;;;;;13.80;10.07;;;;;;;14.73;80.69;98987.31;5056840;28;20423;-68
2021/06/11 00:54:00;;;;;;;14.82;9.75;;;;;;;14.74;80.66;98986.28;5056645;28;20484;-69
2021/06/11 00:56:26;;;;;;;17.90;10.13;;;;;;;14.73;80.41;98982.75;5040095;28;20036;-68
2021/06/11 00:58:52;;;;;;;13.50;10.18;;;;;;;14.71;80.53;98987.50;5040063;28;20044;-68
2021/06/11 01:01:17;;;;;;;14.43;10.73;;;;;;;14.69;80.68;98988.72;5073383;28;20047;-68
2021/06/11 01:03:43;;;;;;;15.10;10.80;;;;;;;14.66;80.67;98986.44;5090168;28;20608;-68
2021/06/11 01:06:10;;;;;;;20.02;10.52;;;;;;;14.66;80.87;98983.75;5039755;28;20067;-68
2021/06/11 01:08:36;;;;;;;15.35;10.82;;;;;;;14.66;80.79;98987.28;5056297;28;20513;-67
2021/06/11 01:11:02;;;;;;;15.70;10.52;;;;;;;14.56;80.99;98968.09;5055272;28;20043;-67
2021/06/11 01:13:28;;;;;;;15.00;10.70;;;;;;;14.49;80.80;98959.25;5089069;28;20097;-68
2021/06/11 01:15:54;;;;;;;14.63;10.27;;;;;;;14.53;80.93;98976.50;5071613;28;20040;-68
2021/06/11 01:18:20;;;;;;;14.80;11.02;;;;;;;14.53;81.08;98984.53;5054544;28;20079;-67
2021/06/11 01:20:47;;;;;;;14.35;10.32;;;;;;;14.49;81.17;98979.78;5055822;28;20055;-68
2021/06/11 01:23:19;;;;;;;15.70;10.13;;;;;;;14.49;81.44;98987.78;5038978;28;20055;-67
2021/06/11 01:25:50;;;;;;;13.40;9.68;;;;;;;14.45;81.18;98981.22;5072851;28;20052;-68
2021/06/11 01:28:16;;;;;;;15.15;9.68;;;;;;;14.47;81.01;98979.97;5089878;28;20044;-68
2021/06/11 01:30:42;;;;;;;16.35;9.43;;;;;;;14.47;81.15;98979.16;5055819;28;20056;-68
2021/06/11 01:33:10;;;;;;;10.63;8.88;;;;;;;14.40;80.89;98967.63;5055955;28;20059;-68
2021/06/11 01:35:40;;;;;;;10.73;8.15;;;;;;;14.47;80.70;98982.66;5073001;28;20051;-68
2021/06/11 01:38:12;;;;;;;12.15;8.77;;;;;;;14.49;80.74;98985.97;5056155;28;20047;-68
2021/06/11 01:40:40;;;;;;;14.30;8.73;;;;;;;14.47;80.63;98985.31;5055844;28;20051;-68
2021/06/11 01:43:07;;;;;;;13.70;8.60;;;;;;;14.46;80.42;98978.34;5089514;28;20458;-68
2021/06/11 01:45:33;;;;;;;11.68;8.30;;;;;;;14.46;80.56;98985.53;5089444;28;20043;-68
2021/06/11 01:47:59;;;;;;;14.07;7.97;;;;;;;14.47;80.58;98989.84;5055556;28;20443;-68
2021/06/11 01:50:29;;;;;;;14.57;8.05;;;;;;;14.40;80.47;98980.97;5072482;28;20058;-68
2021/06/11 01:52:55;;;;;;;13.60;7.53;;;;;;;14.44;80.49;98996.41;5072626;28;20035;-68
2021/06/11 01:55:22;;;;;;;12.82;7.90;;;;;;;14.45;80.38;98998.03;5064192;28;20051;-67
2021/06/11 01:57:49;;;;;;;13.85;7.93;;;;;;;14.40;80.29;98989.81;5056463;28;20039;-67
2021/06/11 02:00:17;;;;;;;12.75;7.55;;;;;;;14.42;79.97;99000.31;5072354;28;20135;-67
2021/06/11 02:02:43;;;;;;;11.82;7.97;;;;;;;14.41;80.04;98998.63;5089534;28;20048;-67
2021/06/11 02:05:10;;;;;;;13.07;7.80;;;;;;;14.42;79.83;99005.66;5055797;28;20043;-68
2021/06/11 02:07:36;;;;;;;11.18;7.50;;;;;;;14.42;79.97;98997.63;5072592;28;20080;-68
2021/06/11 02:10:06;;;;;;;12.40;6.93;;;;;;;14.42;79.78;98997.63;5072292;28;20490;-67
2021/06/11 02:12:32;;;;;;;10.98;6.93;;;;;;;14.39;79.55;98998.84;5039820;28;20075;-68
2021/06/11 02:14:59;;;;;;;10.05;7.60;;;;;;;14.38;79.70;98999.88;5090519;28;20075;-67
2021/06/11 02:17:25;;;;;;;11.82;6.53;;;;;;;14.39;79.49;98998.03;5072644;28;20106;-67
2021/06/11 02:19:52;;;;;;;9.27;6.80;;;;;;;14.41;79.38;98996.81;5072344;28;20550;-68
2021/06/11 02:22:18;;;;;;;10.63;6.43;;;;;;;14.38;79.04;98997.19;5039299;28;20039;-68
2021/06/11 02:24:44;;;;;;;10.30;6.30;;;;;;;14.41;79.23;99002.16;5072339;28;20047;-68
2021/06/11 02:27:11;;;;;;;8.40;6.20;;;;;;;14.28;79.03;98982.56;5089854;28;20044;-68
2021/06/11 02:29:36;;;;;;;7.40;6.32;;;;;;;14.40;79.08;99010.38;5076330;28;20098;-68
2021/06/11 02:32:04;;;;;;;9.15;6.55;;;;;;;14.40;79.13;99015.72;5075807;28;20497;-68
2021/06/11 02:34:30;;;;;;;11.68;6.10;;;;;;;14.39;78.94;99009.53;5042796;28;20039;-67
2021/06/11 02:36:57;;;;;;;11.30;6.55;;;;;;;14.39;78.82;99011.41;5092754;28;20039;-67
2021/06/11 02:39:22;;;;;;;9.85;6.95;;;;;;;14.39;79.09;99008.72;5092941;28;20154;-68
2021/06/11 02:41:52;;;;;;;9.02;6.10;;;;;;;14.39;79.11;99014.06;5092979;28;20048;-68
2021/06/11 02:44:19;;;;;;;7.18;5.95;;;;;;;14.36;79.23;99006.44;5075923;28;20162;-68
2021/06/11 02:46:56;;;;;;;9.25;6.10;;;;;;;14.39;79.17;99016.75;5069331;28;20113;-68
2021/06/11 02:49:36;;;;;;;8.27;6.55;;;;;;;14.36;79.21;99001.91;5075427;28;20040;-69
2021/06/11 02:52:05;;;;;;;14.32;6.30;;;;;;;14.27;79.18;98995.09;5070927;28;20051;-70
2021/06/11 02:54:35;;;;;;;11.32;6.22;;;;;;;14.35;79.22;99002.94;5092484;28;20048;-69
2021/06/11 02:57:05;;;;;;;9.43;6.80;;;;;;;14.36;79.40;99014.47;5057118;28;20462;-69
2021/06/11 02:59:33;;;;;;;10.40;5.95;;;;;;;14.34;79.40;99005.81;5090514;28;20608;-68
2021/06/11 03:02:10;;;;;;;8.23;6.05;;;;;;;14.38;79.81;99007.06;5074345;28;20527;-70
2021/06/11 03:04:40;;;;;;;11.13;6.57;;;;;;;14.40;80.17;99016.53;5070108;28;20119;-69
2021/06/11 03:07:07;;;;;;;10.95;6.47;;;;;;;14.41;79.93;99012.00;5070537;28;20044;-71
2021/06/11 03:09:34;;;;;;;8.95;6.35;;;;;;;14.39;79.86;99008.72;5091489;28;20044;-69
2021/06/11 03:12:03;;;;;;;10.40;6.63;;;;;;;14.38;79.99;99015.06;5074239;28;20055;-69
2021/06/11 03:14:30;;;;;;;12.52;7.00;;;;;;;14.34;80.09;99011.16;5090809;28;20036;-69
2021/06/11 03:17:06;;;;;;;13.23;7.30;;;;;;;14.34;80.19;99009.31;5057849;28;20039;-68
2021/06/11 03:19:36;;;;;;;12.90;6.43;;;;;;;14.29;79.96;99011.75;5058209;28;20048;-69
2021/06/11 03:22:17;;;;;;;10.07;6.60;;;;;;;14.25;80.50;99018.50;5074440;28;20440;-69
2021/06/11 03:24:57;;;;;;;10.95;7.10;;;;;;;14.27;80.37;99007.63;5073941;28;20781;-68
2021/06/11 03:27:27;;;;;;;11.25;6.70;;;;;;;14.26;80.32;99017.47;5074621;28;20048;-68
2021/06/11 03:29:57;;;;;;;10.82;7.00;;;;;;;14.26;80.51;99017.47;5091774;28;20245;-69
2021/06/11 03:32:28;;;;;;;;;;;;;;;14.28;80.33;99012.78;5091396;28;20063;-69
2021/06/11 03:34:56;;;;;;;14.23;7.57;;;;;;;14.26;80.41;99022.81;5073953;28;20344;-69
2021/06/11 03:37:22;;;;;;;12.07;7.07;;;;;;;14.28;80.57;99022.63;5074632;28;20170;-69
2021/06/11 03:39:56;;;;;;;12.38;7.30;;;;;;;14.29;80.49;99024.25;5072946;28;20036;-70
2021/06/11 03:42:22;;;;;;;13.57;7.45;;;;;;;14.32;80.51;99022.03;5091111;28;20047;-69
2021/06/11 03:44:50;;;;;;;9.52;7.13;;;;;;;14.36;80.58;99025.94;5090393;28;20457;-69
2021/06/11 03:47:19;;;;;;;11.93;7.03;;;;;;;14.41;80.49;99028.03;5091967;28;20071;-69
2021/06/11 03:49:47;;;;;;;12.32;7.05;;;;;;;14.39;80.13;99027.44;5074202;28;20154;-69
2021/06/11 03:52:13;;;;;;;10.00;7.32;;;;;;;14.44;80.57;99038.31;5090185;28;20127;-69
2021/06/11 03:54:42;;;;;;;14.60;6.72;;;;;;;14.36;80.36;99009.91;5073361;28;20123;-69
2021/06/11 03:57:09;;;;;;;9.68;7.00;;;;;;;14.52;80.17;99030.16;5072695;28;20039;-69
2021/06/11 03:59:37;;;;;;;8.60;7.20;;;;;;;14.55;79.89;99024.41;5054593;28;20044;-69
2021/06/11 04:02:03;;;;;;;8.63;6.70;;;;;;;14.62;80.00;99031.44;5071157;28;20052;-69
2021/06/11 04:04:30;;;;;;;11.35;7.32;;;;;;;14.65;79.73;99025.69;5038099;28;20036;-68
2021/06/11 04:07:03;;;;;;;11.80;7.07;;;;;;;14.71;79.79;99027.59;5088066;28;20063;-68
2021/06/11 04:09:31;;;;;;;9.55;6.53;;;;;;;14.74;79.65;99023.69;5071469;28;20051;-68
2021/06/11 04:12:08;;;;;;;9.65;7.00;;;;;;;14.81;79.52;99025.38;5071636;28;20088;-68
2021/06/11 04:14:42;;;;;;;9.95;7.00;;;;;;;14.78;79.27;99024.94;5056141;28;20511;-68
2021/06/11 04:17:12;;;;;;;9.65;6.80;;;;;;;14.84;79.29;99030.31;5065156;28;20048;-69
2021/06/11 04:19:41;;;;;;;9.82;6.95;;;;;;;14.90;79.36;99034.03;5091777;28;20039;-69
2021/06/11 04:22:10;;;;;;;9.20;7.40;;;;;;;14.92;79.27;99032.81;5073430;28;20044;-69
2021/06/11 04:24:37;;;;;;;9.07;7.07;;;;;;;14.97;79.07;99035.72;5089917;28;20288;-69
2021/06/11 04:27:04;;;;;;;10.07;7.50;;;;;;;15.01;78.76;99030.78;5056481;28;20056;-69
2021/06/11 04:29:31;;;;;;;10.00;6.78;;;;;;;15.12;78.83;99038.22;5073090;28;20085;-69
2021/06/11 04:31:58;;;;;;;12.13;7.50;;;;;;;15.19;78.69;99028.38;5072412;28;20462;-68
2021/06/11 04:34:24;;;;;;;15.43;7.93;;;;;;;15.13;78.50;99021.13;5091118;28;20127;-69
2021/06/11 04:36:52;;;;;;;11.32;7.85;;;;;;;15.24;78.49;99032.09;5090175;28;20040;-69
2021/06/11 04:39:18;;;;;;;14.27;8.02;;;;;;;15.14;78.31;99010.22;5072901;28;20032;-68
2021/06/11 04:41:43;;;;;;;9.68;7.40;;;;;;;15.24;78.57;99031.25;5073162;28;20040;-69
2021/06/11 04:44:10;;;;;;;11.05;7.85;;;;;;;15.15;78.36;99019.09;5089605;28;20510;-69
2021/06/11 04:46:36;;;;;;;11.93;8.55;;;;;;;15.22;78.46;99031.47;5072346;28;20043;-69
2021/06/11 04:49:04;;;;;;;9.25;7.93;;;;;;;15.23;78.46;99035.81;5073094;28;20048;-68
2021/06/11 04:51:30;;;;;;;14.82;8.43;;;;;;;15.21;78.44;99034.34;5089164;28;20044;-69
2021/06/11 04:53:56;;;;;;;13.23;8.35;;;;;;;15.24;78.60;99029.41;5071944;28;20055;-67
2021/06/11 04:56:22;;;;;;;12.20;7.90;;;;;;;15.27;78.65;99030.03;5056471;28;20104;-69
2021/06/11 04:58:49;;;;;;;12.88;8.60;;;;;;;15.16;78.57;99016.22;5072709;28;20066;-69
2021/06/11 05:01:15;;;;;;;13.43;8.25;;;;;;;15.27;78.71;99035.41;5090819;28;20238;-69
2021/06/11 05:03:41;;;;;;;13.40;8.70;;;;;;;15.27;78.69;99031.69;5072361;28;20687;-69
2021/06/11 05:06:07;;;;;;;13.70;8.77;;;;;;;15.16;78.79;99012.72;5090577;28;20048;-69
2021/06/11 05:08:32;;;;;;;12.60;8.95;;;;;;;15.26;78.88;99029.22;5055451;28;20491;-70
2021/06/11 05:11:00;;;;;;;12.30;9.10;;;;;;;15.27;78.83;99028.16;5072062;28;20134;-68
2021/06/11 05:13:25;;;;;;;16.13;9.00;;;;;;;15.33;78.91;99031.91;5088958;28;20048;-69
2021/06/11 05:15:51;;;;;;;14.07;9.38;;;;;;;15.29;78.84;99012.75;5072709;28;20054;-69
2021/06/11 05:18:17;;;;;;;10.73;8.52;;;;;;;15.43;78.62;99030.50;5071965;28;20044;-70
2021/06/11 05:20:43;;;;;;;14.77;8.90;;;;;;;15.48;78.86;99033.41;5055159;28;20044;-69
2021/06/11 05:23:09;;;;;;;11.50;8.80;;;;;;;15.55;78.54;99022.69;5072380;28;20131;-69
2021/06/11 05:25:36;;;;;;;11.90;8.93;;;;;;;15.66;78.28;99028.28;5055396;28;20399;-70
2021/06/11 05:28:02;;;;;;;12.60;9.43;;;;;;;15.72;77.82;99029.28;5055252;28;20055;-69
2021/06/11 05:30:28;;;;;;;11.20;9.10;;;;;;;15.77;77.83;99021.47;5084989;28;20028;-68
2021/06/11 05:32:55;;;;;;;10.35;8.77;;;;;;;15.79;77.51;99022.91;5067293;28;20113;-69
2021/06/11 05:35:21;;;;;;;8.95;7.43;;;;;;;15.78;77.16;99007.88;5089049;28;20074;-69
2021/06/11 05:37:48;;;;;;;10.43;7.15;;;;;;;15.84;77.15;99004.38;5071723;28;20483;-69
2021/06/11 05:40:15;;;;;;;9.43;7.95;;;;;;;15.99;76.54;99029.09;5071821;28;20071;-69
2021/06/11 05:42:41;;;;;;;11.82;7.57;;;;;;;16.11;76.47;99018.59;5088747;28;20484;-70
2021/06/11 05:45:08;;;;;;;15.90;7.80;;;;;;;16.18;75.95;99020.22;5054944;28;20087;-69
2021/06/11 05:47:40;;;;;;;10.38;7.18;;;;;;;16.22;76.12;99023.31;5089618;28;20072;-69
2021/06/11 05:50:07;;;;;;;11.65;8.18;;;;;;;16.20;76.22;99023.53;5071580;28;20036;-70
2021/06/11 05:52:33;;;;;;;10.48;7.63;;;;;;;16.12;76.12;99004.97;5071839;28;20568;-70
2021/06/11 05:54:59;;;;;;;11.45;7.55;;;;;;;16.18;76.23;99024.75;5071181;28;20135;-69
2021/06/11 05:57:25;;;;;;;12.20;9.00;;;;;;;16.15;76.04;99023.31;5072255;28;20044;-68
2021/06/11 05:59:54;;;;;;;11.30;8.35;;;;;;;16.11;76.66;99030.13;5055330;28;20117;-69
2021/06/11 06:02:20;;;;;;;13.10;8.88;;;;;;;16.04;76.87;99020.44;5090022;28;20038;-69
2021/06/11 06:04:46;;;;;;;11.35;8.57;;;;;;;16.01;77.04;99018.16;5075717;28;20075;-69
2021/06/11 06:07:12;;;;;;;12.30;8.40;;;;;;;16.02;77.13;99028.66;5092364;28;20082;-69
2021/06/11 06:09:38;;;;;;;10.75;8.93;;;;;;;15.98;77.46;99032.81;5094301;28;20036;-69
2021/06/11 06:12:04;;;;;;;10.63;9.40;;;;;;;15.89;77.89;99035.88;5058606;28;20081;-69
2021/06/11 06:14:29;;;;;;;13.75;10.57;;;;;;;15.81;78.24;99036.09;5059050;28;20094;-68
2021/06/11 06:16:55;;;;;;;14.98;11.15;;;;;;;15.76;78.79;99047.41;5056071;28;20048;-68
2021/06/11 06:19:21;;;;;;;12.65;11.13;;;;;;;15.71;78.96;99039.19;5039573;28;20044;-69
2021/06/11 06:21:47;;;;;;;17.40;11.05;;;;;;;15.67;79.09;99040.63;5074035;28;20056;-69
2021/06/11 06:24:12;;;;;;;14.00;11.77;;;;;;;15.67;79.61;99043.28;5075528;28;20093;-69
2021/06/11 06:26:38;;;;;;;17.38;12.48;;;;;;;15.57;79.64;99020.66;5058555;28;20070;-69
2021/06/11 06:29:04;;;;;;;16.92;11.90;;;;;;;15.64;79.59;99051.75;5058790;28;20039;-68
2021/06/11 06:31:31;;;;;;;14.55;11.75;;;;;;;15.65;80.00;99041.88;5092148;28;20044;-68
2021/06/11 06:33:56;;;;;;;17.77;12.45;;;;;;;15.66;79.89;99047.00;5091269;28;20117;-68
2021/06/11 06:36:22;;;;;;;14.32;12.35;;;;;;;15.65;79.98;99039.19;5076008;28;20075;-69
2021/06/11 06:38:51;;;;;;;15.20;13.07;;;;;;;15.66;80.19;99043.50;5058705;28;20040;-70
2021/06/11 06:41:17;;;;;;;20.98;14.02;;;;;;;15.65;79.97;99048.06;5085435;28;20043;-68
2021/06/11 06:43:44;;;;;;;14.68;12.25;;;;;;;15.63;80.08;99046.59;5057185;28;20567;-69
2021/06/11 06:46:10;;;;;;;16.83;12.73;;;;;;;15.62;80.51;99051.09;5091683;28;20139;-69
2021/06/11 06:48:36;;;;;;;15.85;12.20;;;;;;;15.62;80.62;99055.66;5092104;28;20123;-69
2021/06/11 06:51:02;;;;;;;20.25;13.07;;;;;;;15.67;80.86;99048.66;5058034;28;20047;-69
2021/06/11 06:53:28;;;;;;;17.25;11.90;;;;;;;15.71;80.81;99049.06;5057916;28;20039;-68
2021/06/11 06:55:54;;;;;;;15.55;12.00;;;;;;;15.75;80.77;99044.94;5074269;28;20131;-69
2021/06/11 06:58:20;;;;;;;17.92;12.20;;;;;;;15.79;80.60;99048.88;5058085;28;20044;-69
2021/06/11 07:00:45;;;;;;;15.35;12.48;;;;;;;15.80;80.18;99047.84;5074934;28;20586;-68
2021/06/11 07:03:11;;;;;;;16.08;12.88;;;;;;;15.85;80.01;99046.19;5058222;28;20080;-70
2021/06/11 07:05:37;;;;;;;15.50;12.38;;;;;;;15.99;79.64;99039.78;5074613;28;20579;-69
2021/06/11 07:08:03;;;;;;;19.20;12.20;;;;;;;16.14;79.66;99029.72;5074475;28;20054;-70
2021/06/11 07:10:29;;;;;;;16.10;12.18;;;;;;;16.36;79.13;99033.78;5090734;28;20048;-68
2021/06/11 07:12:55;;;;;;;12.77;11.15;;;;;;;16.53;78.28;99029.66;5050536;28;20492;-69
2021/06/11 07:15:21;;;;;;;13.88;10.38;;;;;;;16.68;78.23;99027.53;5087623;28;20101;-69
2021/06/11 07:17:47;;;;;;;12.55;9.40;;;;;;;16.67;77.56;99011.66;5054344;28;20048;-70
2021/06/11 07:20:13;;;;;;;11.60;9.82;;;;;;;16.77;77.54;99023.56;5054244;28;20067;-69
2021/06/11 07:22:39;;;;;;;11.23;9.98;;;;;;;16.88;77.26;99030.97;5053995;28;20131;-71
2021/06/11 07:25:06;;;;;;;10.52;9.30;;;;;;;16.95;77.01;99035.47;5054158;28;20036;-72
2021/06/11 07:27:33;;;;;;;12.35;9.30;;;;;;;16.88;76.78;99014.06;5054197;28;20411;-73
2021/06/11 07:30:00;;;;;;;11.32;8.70;;;;;;;16.93;76.80;99027.63;5021005;28;20075;-72
2021/06/11 07:32:26;;;;;;;11.10;8.43;;;;;;;16.97;77.08;99025.38;5070290;28;20056;-72
2021/06/11 07:34:52;;;;;;;8.90;8.00;;;;;;;17.01;76.61;99031.94;5070524;28;20114;-69
2021/06/11 07:37:18;;;;;;;12.32;9.13;;;;;;;17.00;76.89;99035.66;5070710;28;20087;-70
2021/06/11 07:39:43;;;;;;;11.73;8.75;;;;;;;16.97;77.16;99033.41;5053769;28;20040;-70
2021/06/11 07:42:11;;;;;;;11.38;8.30;;;;;;;16.94;76.93;99028.47;5070644;28;20066;-70
2021/06/11 07:44:38;;;;;;;10.65;8.15;;;;;;;16.87;77.26;99046.47;5070487;28;20142;-69
2021/06/11 07:47:04;;;;;;;10.13;8.10;;;;;;;16.80;77.25;99041.91;5087445;28;20108;-69
2021/06/11 07:49:30;;;;;;;9.02;7.45;;;;;;;16.77;77.38;99039.66;5066266;28;20032;-68
2021/06/11 07:51:56;;;;;;;9.82;7.88;;;;;;;16.77;77.16;99045.03;5054106;28;20093;-69
2021/06/11 07:54:21;;;;;;;11.80;7.88;;;;;;;16.79;77.36;99034.94;5079015;28;20040;-69
2021/06/11 07:56:47;;;;;;;10.93;7.55;;;;;;;16.79;77.14;99045.66;5080052;28;20055;-69
2021/06/11 07:59:15;;;;;;;26.83;8.95;;;;;;;16.90;77.81;99051.41;5067318;28;20066;-69
2021/06/11 08:01:41;;;;;;;15.75;7.60;;;;;;;17.01;77.30;99048.03;5080881;28;20040;-70
2021/06/11 08:04:06;;;;;;;15.30;7.55;;;;;;;17.10;76.88;99046.78;5053400;28;20043;-71
2021/06/11 08:06:32;;;;;;;16.42;7.25;;;;;;;17.25;76.53;99039.25;5078667;28;20102;-71
2021/06/11 08:08:58;;;;;;;7.57;6.30;;;;;;;17.31;75.49;99038.41;5048567;28;20503;-69
2021/06/11 08:11:24;;;;;;;8.60;6.13;;;;;;;17.30;75.67;99039.44;5091903;28;20503;-70
2021/06/11 08:13:50;;;;;;;8.95;6.20;;;;;;;17.19;75.36;99032.06;5083055;28;20090;-69
2021/06/11 08:16:16;;;;;;;7.35;5.68;;;;;;;17.22;75.54;99050.44;5069199;28;20036;-69
2021/06/11 08:18:41;;;;;;;9.90;6.55;;;;;;;17.18;75.68;99027.72;5054004;28;20056;-72
2021/06/11 08:21:07;;;;;;;7.97;6.35;;;;;;;17.17;75.45;99044.88;5053710;28;20045;-69
2021/06/11 08:23:33;;;;;;;10.18;7.18;;;;;;;17.12;75.80;99045.53;5077269;28;20041;-72
2021/06/11 08:25:59;;;;;;;10.50;8.70;;;;;;;17.07;76.17;99053.38;5051807;28;20060;-70
2021/06/11 08:28:25;;;;;;;11.43;9.15;;;;;;;17.01;76.21;99058.75;5063484;28;20029;-69
2021/06/11 08:30:50;;;;;;;12.52;9.18;;;;;;;17.00;76.07;99057.97;5047013;28;20100;-68
2021/06/11 08:33:16;;;;;;;12.30;9.73;;;;;;;17.00;76.20;99060.66;5034871;28;20045;-68
2021/06/11 08:35:42;;;;;;;12.40;10.82;;;;;;;16.95;76.00;99054.25;5056954;28;20040;-69
2021/06/11 08:38:12;;;;;;;12.95;10.07;;;;;;;16.94;75.97;99060.66;5046534;28;20040;-69
2021/06/11 08:40:38;;;;;;;12.82;10.13;;;;;;;16.93;76.34;99065.19;5060402;28;20044;-69
2021/06/11 08:43:05;;;;;;;12.70;10.45;;;;;;;16.79;76.31;99044.81;5052412;28;20048;-68
2021/06/11 08:45:31;;;;;;;12.25;10.23;;;;;;;16.83;76.99;99052.25;5063082;28;20047;-68
2021/06/11 08:47:58;;;;;;;14.23;11.38;;;;;;;16.76;76.97;99055.97;5062531;28;20040;-68
2021/06/11 08:50:30;;;;;;;15.38;9.90;;;;;;;16.74;77.23;99047.34;5063140;28;20508;-68
2021/06/11 08:52:57;;;;;;;15.70;11.80;;;;;;;16.71;77.28;99063.84;5068674;28;20543;-67
2021/06/11 08:55:23;;;;;;;16.88;12.07;;;;;;;16.71;77.50;99053.94;5080472;28;20085;-69
2021/06/11 08:57:49;;;;;;;15.32;12.30;;;;;;;16.61;77.41;99045.50;5077843;28;20509;-69
2021/06/11 09:00:16;;;;;;;15.35;12.32;;;;;;;16.70;77.63;99065.69;5079934;28;20981;-70
2021/06/11 09:03:07;;;;;;;19.50;13.73;;;;;;;16.74;77.74;99058.06;5075010;28;20112;-69
2021/06/11 09:05:34;;;;;;;16.90;13.43;;;;;;;16.70;77.55;99044.25;5051085;28;20066;-71
2021/06/11 09:08:20;;;;;;;17.08;12.52;;;;;;;16.90;77.09;99062.94;5077836;28;20043;-72
2021/06/11 09:10:48;;;;;;;19.65;12.57;;;;;;;16.94;76.96;99060.66;5070093;28;20052;-71
2021/06/11 09:13:26;;;;;;;17.83;15.45;;;;;;;16.92;77.00;99052.00;5052504;28;20226;-70
2021/06/11 09:16:06;;;;;;;18.67;14.98;;;;;;;16.92;76.70;99070.78;5068786;28;20040;-69
2021/06/11 09:18:31;;;;;;;19.85;14.57;;;;;;;16.82;76.94;99033.69;5035700;28;20048;-68
2021/06/11 09:20:57;;;;;;;22.63;14.75;;;;;;;16.93;76.93;99056.34;5035364;28;20071;-67
2021/06/11 09:23:23;;;;;;;17.77;14.25;;;;;;;16.92;76.71;99057.34;5086240;28;20036;-69
2021/06/11 09:25:49;;;;;;;18.42;13.77;;;;;;;16.93;76.86;99067.88;5035305;28;20489;-69
2021/06/11 09:28:34;;;;;;;23.10;15.88;;;;;;;16.95;76.61;99056.94;5074862;28;20044;-68
2021/06/11 09:31:00;;;;;;;20.70;15.88;;;;;;;16.97;76.63;99057.56;5068062;28;20090;-72
2021/06/11 09:33:26;;;;;;;19.02;15.40;;;;;;;16.97;76.44;99052.19;5033674;28;20048;-80
2021/06/11 09:35:54;;;;;;;20.70;14.93;;;;;;;16.97;75.90;99058.38;5033130;28;20086;-71
2021/06/11 09:38:26;;;;;;;18.92;15.32;;;;;;;17.04;76.41;99052.97;5068720;28;20131;-74
2021/06/11 09:40:58;;;;;;;23.45;15.55;;;;;;;17.10;75.98;99068.25;5060561;28;20037;-74
2021/06/11 09:43:29;;;;;;;16.45;13.73;;;;;;;17.14;75.76;99058.72;5062543;28;20074;-73
2021/06/11 09:46:10;;;;;;;22.70;14.23;;;;;;;17.20;75.93;99064.06;5062545;28;20067;-75
2021/06/11 09:48:47;;;;;;;23.73;14.32;;;;;;;17.24;75.90;99056.38;5078913;28;20050;-75
2021/06/11 09:51:26;;;;;;;25.00;17.13;;;;;;;17.30;75.69;99053.66;5046544;28;20056;-73
2021/06/11 09:53:53;;;;;;;26.55;16.75;;;;;;;17.32;75.48;99056.97;5075657;28;20044;-74
2021/06/11 09:56:29;;;;;;;23.77;16.20;;;;;;;17.31;75.53;99054.50;5078675;28;20036;-75
2021/06/11 09:58:58;;;;;;;25.13;16.55;;;;;;;17.30;75.60;99063.59;5067794;28;20043;-79
2021/06/11 10:01:26;;;;;;;27.90;18.33;;;;;;;17.28;75.46;99065.66;5017264;28;20044;-74
2021/06/11 10:03:54;;;;;;;21.80;15.77;;;;;;;17.28;75.72;99053.09;5016956;28;20123;-75
2021/06/11 10:06:22;;;;;;;23.83;16.92;;;;;;;17.31;75.59;99058.03;5033471;28;20404;-77
2021/06/11 10:08:49;;;;;;;23.98;16.65;;;;;;;17.32;75.47;99061.50;5050817;28;20051;-73
2021/06/11 10:11:30;;;;;;;27.25;16.65;;;;;;;17.21;75.91;99038.88;5051554;28;20044;-71
2021/06/11 10:13:56;;;;;;;23.60;15.57;;;;;;;17.33;75.92;99063.97;5068220;28;20082;-76
2021/06/11 10:16:22;;;;;;;24.88;16.63;;;;;;;17.31;75.78;99060.72;5035521;28;20040;-72
2021/06/11 10:18:49;;;;;;;27.92;17.48;;;;;;;17.28;75.91;99068.34;5035071;28;20044;-72
2021/06/11 10:21:15;;;;;;;25.55;17.58;;;;;;;17.26;76.56;99065.88;5068456;28;20461;-71
2021/06/11 10:23:41;;;;;;;31.40;19.80;;;;;;;17.24;76.49;99069.81;5035127;28;20063;-71
2021/06/11 10:26:09;;;;;;;24.98;18.17;;;;;;;17.24;76.84;99069.81;5068616;28;20098;-70
2021/06/11 10:28:44;;;;;;;25.60;17.48;;;;;;;17.24;76.77;99075.16;5069652;28;20052;-69
2021/06/11 10:31:16;;;;;;;33.95;18.08;;;;;;;17.14;76.61;99062.25;5068361;28;20044;-70
2021/06/11 10:33:45;;;;;;;24.02;16.83;;;;;;;17.28;76.88;99079.09;5069867;28;20060;-70
2021/06/11 10:39:01;;;;;;;28.98;18.25;;;;;;;17.30;77.00;99075.16;5068167;28;20040;-71
2021/06/11 10:41:28;;;;;;;25.50;18.20;;;;;;;17.40;76.76;99085.44;5068546;28;20423;-71
2021/06/11 10:43:54;;;;;;;36.20;22.85;;;;;;;17.41;76.82;99081.69;5035344;28;20040;-70
2021/06/11 10:46:24;;;;;;;27.23;18.33;;;;;;;17.45;76.54;99081.06;5051660;28;20472;-72
2021/06/11 10:48:55;;;;;;;26.77;18.67;;;;;;;17.58;76.54;99081.00;5071070;28;20117;-71
2021/06/11 10:51:50;;;;;;;27.90;19.55;;;;;;;17.69;76.25;99083.00;5072522;28;20102;-72
2021/06/11 10:54:16;;;;;;;28.52;18.67;;;;;;;17.73;76.08;99078.00;5022323;28;20037;-71
2021/06/11 10:56:57;;;;;;;27.45;19.98;;;;;;;17.79;75.86;99080.66;5070911;28;20401;-72
2021/06/11 10:59:48;;;;;;;25.98;18.25;;;;;;;17.90;75.54;99079.13;5072067;28;20050;-72
2021/06/11 11:02:15;;;;;;;26.05;18.45;;;;;;;17.91;75.31;99076.22;5074236;28;20052;-72
2021/06/11 11:04:44;;;;;;;31.42;18.75;;;;;;;17.87;75.25;99068.81;5055017;28;20043;-73
2021/06/11 11:07:23;;;;;;;26.65;18.42;;;;;;;18.06;74.98;99082.13;5072579;28;20569;-72
2021/06/11 11:09:51;;;;;;;31.48;21.25;;;;;;;18.11;74.96;99078.78;5038499;28;20047;-71
2021/06/11 11:12:16;;;;;;;29.88;20.33;;;;;;;18.17;74.83;99072.53;5055247;28;20083;-72
2021/06/11 11:14:42;;;;;;;34.80;21.85;;;;;;;18.20;74.56;99069.38;5071046;28;20072;-70
2021/06/11 11:17:10;;;;;;;29.35;21.10;;;;;;;18.23;74.56;99067.09;5054604;28;20040;-73
2021/06/11 11:19:54;;;;;;;29.25;19.50;;;;;;;18.27;74.44;99065.59;5071456;28;20511;-72
2021/06/11 11:22:38;;;;;;;34.97;21.73;;;;;;;18.12;74.62;99061.59;5054910;28;20041;-72
2021/06/11 11:25:13;;;;;;;28.10;18.55;;;;;;;18.22;74.90;99072.69;5071209;28;20055;-74
2021/06/11 11:27:51;;;;;;;32.78;19.38;;;;;;;18.25;74.84;99070.34;5070933;28;20052;-75